Tiempo atmosférico en la estación meteorológica de Villablino, León (958 m.)



Fecha
DESCASC
Temp. máxima en grados centígrados (hora)
DESCASC
Temp. mínima en grados centígrados (hora)
DESCASC
Temp. media en grados centígrados
DESCASC
Racha de viento máxima en m/sg (hora)
DESCASC
Velocidad máxima media en intervalos de 10 minutos(hora)
DESCASC
Precipitaciones diarias en mm
DESCASC
Precipitaciones de 00:00 a 06:00 en mm
DESCASC
Precipitaciones de 06:00 a 12:00 en mm
DESCASC
Precipitaciones de 12:00 a 18:00 en mm
DESCASC
Precipitaciones de 18:00 a 24:00 en mm
DESCASC
22-11-2020 18.7 (15:40) -2.4 (08:40) 8.2 3.33 (14:20) 2.22 (15:50) 0 0 0 0 0
21-11-2020 19.4 (15:00) -1.1 (07:30) 9.1 -- (--) -- (--) 0 0 0 0 0
20-11-2020 18.3 (16:20) -2.3 (08:30) 8 3.61 (15:20) 2.5 (15:20) 0 0 0 0 0
19-11-2020 20.1 (14:30) 1.5 (00:00) 10.8 7.78 (17:20) 4.17 (16:40) 0 0 0 0 0
18-11-2020 20.7 (15:50) 3.4 (00:00) 12.1 10.83 (13:40) 5.83 (14:30) 0 0 0 0 0
17-11-2020 20.8 (15:40) -1.5 (-00:0) 9.6 2.5 (14:50) 1.67 (14:50) 0 0 0 0 0
16-11-2020 16.1 (15:40) 1.3 (00:00) 8.7 4.72 (15:50) 1.94 (17:10) 0.2 0 0 0.2 0
15-11-2020 14.1 (14:00) 7.6 (00:00) 10.9 16.39 (11:30) 8.33 (09:00) 11 1.2 5.8 4 0
14-11-2020 13.5 (14:00) -0.5 (-00:0) 6.5 15 (20:50) 7.78 (21:00) 0 0 0 0 0
13-11-2020 -- (--) -- (--) -- -- (--) -- (--) -- 0 0 0 --
12-11-2020 -- (--) -- (--) -- -- (--) -- (--) -- 0.4 -- 0 0
11-11-2020 12.6 (15:30) 0.3 (00:00) 6.5 13.89 (15:30) 8.61 (15:40) 0 0 0 0 0
10-11-2020 16.9 (15:10) 2.9 (00:00) 9.9 -- (--) 3.33 (15:40) 0 0 0 0 0
09-11-2020 13.8 (15:00) 6.4 (00:00) 10.1 8.61 (00:20) 5 (01:10) 3 0.8 0.4 1.6 0.2
08-11-2020 -- (--) -- (--) -- -- (--) -- (--) -- 1.4 1 0 --
07-11-2020 14.4 (13:00) 6.9 (00:00) 10.6 -- (--) -- (--) -- 0 -- 0 0
06-11-2020 16.7 (13:30) 9.8 (00:00) 13.3 24.17 (14:00) 10 (22:50) 1.8 0.4 0.2 0 1.2
05-11-2020 12.2 (11:40) 5.7 (00:00) 8.9 -- (--) 6.67 (10:50) 5.8 0 0 0 5.8
04-11-2020 10.6 (13:30) -3 (-00:0) 3.8 -- (--) 3.33 (15:40) 0 0 0 0 0
03-11-2020 -- (--) -- (--) -- -- (--) -- (--) -- 0 0 -- 0
02-11-2020 -- (--) -- (--) -- -- (--) -- (--) -- 0 0 -- 2
01-11-2020 15.7 (14:30) 12.4 (00:00) 14 11.39 (22:00) 7.22 (22:10) 0 0 0 0 0
31-10-2020 15 (17:10) 1.5 (00:00) 8.3 13.61 (12:50) 6.94 (12:30) 0 0 0 0 0
30-10-2020 20.2 (15:30) -1.3 (-00:0) 9.5 8.06 (16:00) 5.28 (15:00) 0 0 0 0 0
29-10-2020 20.3 (15:10) -0.3 (00:00) 10 4.72 (16:40) 1.94 (18:00) 0 0 0 0 0
28-10-2020 14.2 (15:20) 2 (00:00) 8.1 12.78 (05:00) 7.22 (04:50) 0 0 0 0 0
27-10-2020 11.1 (23:30) 5.9 (00:00) 8.5 13.61 (13:30) 6.67 (13:30) 2.6 0 0 1 1.6

Gráficas

Temp. máximas Temp. mínimas Temp. medias Precipitaciones Rachas de viento máximas Velocidades máximas media en intervalos de 10 minutos

Datos horarios

Fecha y hora oficial Temperatura (ºC) Velocidad del viento (km/h) Dirección del viento Racha (km/h) Dirección de racha Precipitación (mm) Presión (hPa) Tendencia (hPa) Humedad (%)
2020-11-25 23:00:00 5.5 4 Sur 12 Sudoeste 0.4 -- -- 94
2020-11-25 22:00:00 5.7 4 Sur 23 Este 0.4 -- -- 90
2020-11-25 21:00:00 5.4 8 Nordeste 19 Nordeste 0 -- -- 87
2020-11-25 20:00:00 5 5 Norte 21 Oeste 0 -- -- 88
2020-11-25 19:00:00 4.6 8 Noroeste 16 Noroeste 0 -- -- 90
2020-11-25 18:00:00 4.7 4 Norte 15 Nordeste 0.2 -- -- 90
2020-11-25 17:00:00 4.6 5 Norte 16 Noroeste 0.4 -- -- 89
2020-11-25 16:00:00 4.7 7 Norte 17 Norte 0.2 -- -- 90
2020-11-25 15:00:00 5.4 7 Norte 19 Norte 0.2 -- -- 90
2020-11-25 14:00:00 5.7 5 Norte 15 Norte 1.4 -- -- 88
2020-11-25 13:00:00 5.6 7 Nordeste 19 Nordeste 1.2 -- -- 89
2020-11-25 12:00:00 6.2 5 Norte 10 Norte 1 -- -- 96
2020-11-25 11:00:00 5.6 3 Norte 6 Noroeste 1 -- -- 98
2020-11-25 10:00:00 5.3 2 Sur 4 Norte 0.2 -- -- 98
2020-11-25 09:00:00 4.9 0 Calma 4 Este 0 -- -- 98
2020-11-25 08:00:00 4.8 2 Sudoeste 5 Noroeste 0 -- -- 97
2020-11-25 07:00:00 5 3 Noroeste 10 Sur 0.2 -- -- 95
2020-11-25 06:00:00 5.4 5 Sur 26 Sur 2.4 -- -- 93
2020-11-25 05:00:00 5.6 0 Calma 5 Norte 1.4 -- -- 97
2020-11-25 04:00:00 5.7 3 Norte 5 Norte 0.6 -- -- 94
2020-11-25 03:00:00 6 3 Sur 9 Sur 0 -- -- 89
2020-11-25 02:00:00 -- -- -- -- -- -- -- -- --
2020-11-25 01:00:00 -- -- -- -- -- -- -- -- --
2020-11-25 00:00:00 -- -- -- -- -- -- -- -- --
2020-11-24 23:00:00 -- -- -- -- -- -- -- -- --
2020-11-24 22:00:00 -- -- -- -- -- -- -- -- --
2020-11-24 21:00:00 -- -- -- -- -- -- -- -- --
2020-11-24 20:00:00 -- -- -- -- -- -- -- -- --
2020-11-24 19:00:00 -- -- -- -- -- -- -- -- --
2020-11-24 18:00:00 -- -- -- -- -- -- -- -- --
2020-11-24 17:00:00 -- -- -- -- -- -- -- -- --
2020-11-24 16:00:00 -- -- -- -- -- -- -- -- --
2020-11-24 15:00:00 12.4 18 Sudoeste 34 Sur 0 -- -- 51
2020-11-24 14:00:00 12.5 10 Sudoeste 20 Sudoeste 0 -- -- 53
2020-11-24 13:00:00 9.8 6 Oeste 13 Oeste 0 -- -- 64
2020-11-24 12:00:00 6.7 2 Sudeste 8 Sur 0 -- -- 68
2020-11-24 11:00:00 2.4 2 Sudeste 5 Noroeste 0 -- -- 95
2020-11-24 10:00:00 -0.5 0 Calma 4 Noroeste 0 -- -- 98
2020-11-24 09:00:00 -1.7 0 Calma 4 Norte 0 -- -- 99
2020-11-24 08:00:00 -2.2 0 Calma 5 Norte 0 -- -- 99
2020-11-24 07:00:00 -1.7 0 Calma 5 Noroeste 0 -- -- 99
2020-11-24 06:00:00 -1.8 0 Calma 6 Norte 0 -- -- 99
2020-11-24 05:00:00 -1.6 3 Este 6 Norte 0 -- -- 99
2020-11-24 04:00:00 -0.8 3 Norte 5 Nordeste 0 -- -- 98
2020-11-24 03:00:00 -0.1 2 Norte 5 Norte 0 -- -- 98
2020-11-24 02:00:00 0.4 0 Calma 6 Norte 0 -- -- 98
2020-11-24 01:00:00 0.7 0 Calma 7 Norte 0 -- -- 98
2020-11-24 00:00:00 0.9 2 Norte 5 Oeste 0 -- -- 97
2020-11-23 23:00:00 1.5 3 Nordeste 5 Este 0 -- -- 97
2020-11-23 22:00:00 2.1 2 Nordeste 5 Norte 0 -- -- 94
2020-11-23 21:00:00 3.5 0 Calma 6 Nordeste 0 -- -- 94
2020-11-23 20:00:00 5 2 Nordeste 5 Este 0 -- -- 89
2020-11-23 19:00:00 6.5 2 Nordeste 6 Noroeste 0 -- -- 84
2020-11-23 18:00:00 8.6 6 Norte 7 Norte 0 -- -- 77
2020-11-23 17:00:00 11 4 Norte 9 Norte 0 -- -- 67
2020-11-23 16:00:00 14.5 6 Norte 8 Norte 0 -- -- 53
2020-11-23 15:00:00 16.3 3 Noroeste 5 Sur 0 -- -- 47
2020-11-23 14:00:00 15 2 Sur 5 Sur 0 -- -- 52
2020-11-23 13:00:00 11.3 3 Sur 5 Sur 0 -- -- 61
2020-11-23 12:00:00 7.1 2 Sudeste 5 Sudeste 0 -- -- 80
2020-11-23 11:00:00 1 3 Sudeste 4 Sudeste 0 -- -- 99
2020-11-23 10:00:00 -1.8 0 Calma 4 Nordeste 0 -- -- 99
2020-11-23 09:00:00 -2 4 Norte 6 Norte 0 -- -- 99
2020-11-23 08:00:00 -2.2 0 Calma 6 Norte 0 -- -- 99
2020-11-23 07:00:00 -1.9 3 Nordeste 6 Norte 0 -- -- 99
2020-11-23 06:00:00 -1.7 3 Norte 5 Nordeste 0 -- -- 99
2020-11-23 05:00:00 -1.3 3 Norte 5 Norte 0 -- -- 99
2020-11-23 04:00:00 -1.2 2 Nordeste 4 Norte 0 -- -- 98
2020-11-23 03:00:00 -0.9 4 Nordeste 7 Norte 0 -- -- 97
2020-11-23 02:00:00 -0.4 2 Norte 6 Norte 0 -- -- 97
2020-11-23 01:00:00 -0.2 0 Calma 6 Norte 0 -- -- 97
2020-11-23 00:00:00 0.6 0 Calma 4 Norte 0 -- -- 96
2020-11-22 23:00:00 1.1 0 Calma 5 Norte 0 -- -- 94
2020-11-22 22:00:00 2.2 3 Nordeste 6 Noroeste 0 -- -- 91
2020-11-22 21:00:00 4.7 3 Norte 7 Norte 0 -- -- 80
2020-11-22 20:00:00 5.9 4 Norte 10 Nordeste 0 -- -- 76
2020-11-22 19:00:00 6.5 0 Calma 6 Sur 0 -- -- 81
2020-11-22 18:00:00 8.4 3 Sur 8 Sur 0 -- -- 71
2020-11-22 17:00:00 10.7 2 Norte 7 Sur 0 -- -- 56
2020-11-22 16:00:00 17.1 7 Sur 11 Sur 0 -- -- 45
2020-11-22 15:00:00 18.1 5 Sur 12 Sudoeste 0 -- -- 39
2020-11-22 14:00:00 15.8 3 Nordeste 6 Sur 0 -- -- 41
2020-11-22 13:00:00 11.3 5 Sur 7 Sur 0 -- -- 57
2020-11-22 12:00:00 7.5 0 Calma 5 Este 0 -- -- 67
2020-11-22 11:00:00 1.4 2 Sudeste 4 Sudeste 0 -- -- 97
2020-11-22 10:00:00 -1.9 0 Calma 5 Norte 0 -- -- 98
2020-11-22 09:00:00 -2.3 0 Calma 5 Norte 0 -- -- 99
2020-11-22 08:00:00 -2 2 Norte -- -- 0 -- -- 99
2020-11-22 07:00:00 -2.1 2 Norte 5 Norte 0 -- -- 98
2020-11-22 06:00:00 -1.9 2 Nordeste 5 Norte 0 -- -- 98
2020-11-22 05:00:00 -1.6 2 Norte 5 Noroeste 0 -- -- 98
2020-11-22 04:00:00 -1.5 0 Calma 5 Este 0 -- -- 98
2020-11-22 03:00:00 -1.1 0 Calma 5 Norte 0 -- -- 97
2020-11-22 02:00:00 -0.4 3 Norte 5 Noroeste 0 -- -- 97
2020-11-22 01:00:00 0.1 3 Nordeste 9 Norte 0 -- -- 95
2020-11-22 00:00:00 0.3 0 Calma 6 Norte 0 -- -- 96
2020-11-21 23:00:00 1.1 2 Nordeste 5 Norte 0 -- -- 95
2020-11-21 22:00:00 1.8 3 Nordeste 5 Este 0 -- -- 91
2020-11-21 21:00:00 3.2 2 Norte 5 Este 0 -- -- 89
2020-11-21 20:00:00 4.2 3 Norte 5 Norte 0 -- -- 87
2020-11-21 19:00:00 6 3 Nordeste 6 Nordeste 0 -- -- 81
2020-11-21 18:00:00 9.1 5 Norte 9 Noroeste 0 -- -- 66
2020-11-21 17:00:00 10.6 4 Norte 7 Norte 0 -- -- 63
2020-11-21 16:00:00 18.6 2 Oeste 12 Sur 0 -- -- 44
2020-11-21 15:00:00 19.4 3 Sudoeste 6 Noroeste 0 -- -- 44
2020-11-21 14:00:00 17.9 2 Noroeste 6 Sur 0 -- -- 44
2020-11-21 13:00:00 13.6 3 Sur 6 Sur 0 -- -- 56
2020-11-21 12:00:00 9 3 Sudeste 6 Este 0 -- -- 70
2020-11-21 11:00:00 3.2 3 Sudeste 5 Este 0 -- -- 97
2020-11-21 10:00:00 -0.6 0 Calma 5 Norte 0 -- -- 99
2020-11-21 09:00:00 -0.9 5 Norte 6 Norte 0 -- -- 99
2020-11-21 08:00:00 -0.9 3 Norte 5 Nordeste 0 -- -- 98
2020-11-21 07:00:00 -- -- -- -- -- -- -- -- --
2020-11-21 06:00:00 -0.4 3 Nordeste 6 Norte 0 -- -- 97
2020-11-21 05:00:00 0.2 2 Norte 5 Nordeste 0 -- -- 98
2020-11-21 04:00:00 0.1 0 Calma 5 Norte 0 -- -- 97
2020-11-21 03:00:00 0.7 3 Nordeste 5 Norte 0 -- -- 96
2020-11-21 02:00:00 0.9 2 Norte 4 Nordeste 0 -- -- 95
2020-11-21 01:00:00 1.3 3 Norte 6 Nordeste 0 -- -- 94
2020-11-21 00:00:00 2.2 2 Norte 6 Norte 0 -- -- 92
2020-11-20 23:00:00 2.8 3 Nordeste 6 Este 0 -- -- 90
2020-11-20 22:00:00 3.6 3 Norte 6 Este 0 -- -- 88
2020-11-20 21:00:00 4.5 2 Norte 5 Oeste 0 -- -- 84
2020-11-20 20:00:00 6.1 2 Noroeste 8 Norte 0 -- -- 77
2020-11-20 19:00:00 7.4 3 Sur 9 Norte 0 -- -- 78
2020-11-20 18:00:00 9.2 0 Calma 11 Noroeste -- -- -- 68
2020-11-20 17:00:00 12 6 Norte 11 Nordeste 0 -- -- 57
2020-11-20 16:00:00 17.5 3 Noroeste 13 Sur 0 -- -- 40
2020-11-20 15:00:00 17.1 8 Sur 11 Sur 0 -- -- 36
2020-11-20 14:00:00 16.7 4 Sur 6 Sur 0 -- -- 37
2020-11-20 13:00:00 12.7 3 Sur 8 Sur 0 -- -- 46
2020-11-20 12:00:00 7.3 3 Sudeste 5 Este 0 -- -- 63
2020-11-20 11:00:00 1.5 3 Este 7 Este 0 -- -- 97
2020-11-20 10:00:00 -1.8 2 Este 6 Norte 0 -- -- 99
2020-11-20 09:00:00 -2.2 2 Norte 5 Norte 0 -- -- 99
2020-11-20 08:00:00 -2.1 2 Norte 6 Norte 0 -- -- 99
2020-11-20 07:00:00 -2 2 Norte 5 Nordeste 0 -- -- 99
2020-11-20 06:00:00 -1.5 0 Calma 5 Norte 0 -- -- 99
2020-11-20 05:00:00 -1.4 2 Norte 5 Noroeste 0 -- -- 99
2020-11-20 04:00:00 -1.3 0 Calma 4 Este 0 -- -- 99
2020-11-20 03:00:00 -0.5 2 Nordeste 5 Norte 0 -- -- 98
2020-11-20 02:00:00 -0.1 3 Noroeste 5 Este 0 -- -- 98
2020-11-20 01:00:00 0.7 3 Norte 8 Norte 0 -- -- 98
2020-11-20 00:00:00 1.9 6 Norte 10 Nordeste 0 -- -- 97
2020-11-19 23:00:00 2.4 4 Nordeste 8 Norte 0 -- -- 94
2020-11-19 22:00:00 4.4 7 Norte 13 Nordeste 0 -- -- 90
2020-11-19 21:00:00 4.4 4 Nordeste 9 Nordeste 0 -- -- 92
2020-11-19 20:00:00 5.9 4 Norte 10 Norte 0 -- -- 88
2020-11-19 19:00:00 8 2 Noroeste 14 Norte 0 -- -- 89
2020-11-19 18:00:00 10.4 4 Noroeste 28 Norte 0 -- -- 81
2020-11-19 17:00:00 13.6 14 Noroeste 28 Norte 0 -- -- 66
2020-11-19 16:00:00 18.2 8 Noroeste 23 Noroeste 0 -- -- 47
2020-11-19 15:00:00 19.1 10 Norte 23 Noroeste 0 -- -- 45
2020-11-19 14:00:00 19.3 4 Sur 8 Sur 0 -- -- 55
2020-11-19 13:00:00 15.4 6 Sur 8 Sur 0 -- -- 70
2020-11-19 12:00:00 12.5 0 Calma 6 Sur 0 -- -- 82
2020-11-19 11:00:00 7.6 3 Este 6 Este 0 -- -- 100
2020-11-19 10:00:00 4.2 0 Calma 5 Noroeste 0 -- -- 99
2020-11-19 09:00:00 4.1 0 Calma 6 Norte 0 -- -- 99
2020-11-19 08:00:00 3.5 2 Este 8 Este 0 -- -- 100
2020-11-19 07:00:00 3 0 Calma 6 Este 0 -- -- 100
2020-11-19 06:00:00 3.3 2 Noroeste 8 Norte 0 -- -- 99
2020-11-19 05:00:00 3.8 0 Calma 5 Noroeste 0 -- -- 99
2020-11-19 04:00:00 4.1 3 Norte 5 Sudeste 0 -- -- 99
2020-11-19 03:00:00 3.8 3 Nordeste 5 Norte 0 -- -- 98
2020-11-19 02:00:00 4.4 2 Nordeste 5 Norte 0 -- -- 97
2020-11-19 01:00:00 5.2 5 Norte 9 Norte 0 -- -- 94
2020-11-19 00:00:00 6.3 2 Norte 9 Norte 0 -- -- 90
2020-11-18 23:00:00 7.9 4 Norte 7 Norte 0 -- -- 85
2020-11-18 22:00:00 8.5 2 Nordeste 8 Norte 0 -- -- 87
2020-11-18 21:00:00 9.3 3 Sur 5 Sur 0 -- -- 86
2020-11-18 20:00:00 10.7 4 Norte 7 Norte 0 -- -- 79
2020-11-18 19:00:00 10.8 3 Este 8 Nordeste 0 -- -- 78
2020-11-18 18:00:00 13.4 3 Este 11 Sur 0 -- -- 68
2020-11-18 17:00:00 15.6 7 Sudoeste 21 Sur 0 -- -- 58
2020-11-18 16:00:00 20.1 11 Sur 29 Sur 0 -- -- 46
2020-11-18 15:00:00 20 17 Sur 32 Sur 0 -- -- 45
2020-11-18 14:00:00 19.5 17 Sur 39 Sur 0 -- -- 49
2020-11-18 13:00:00 17.4 2 Este 8 Sur 0 -- -- 63
2020-11-18 12:00:00 14 3 Sur 8 Sur 0 -- -- 75
2020-11-18 11:00:00 10 3 Sur 5 Sur 0 -- -- 90
2020-11-18 10:00:00 5.7 0 Calma 5 Norte 0 -- -- 98
2020-11-18 09:00:00 5.5 2 Sudeste 4 Sur 0 -- -- 97
2020-11-18 08:00:00 6 3 Oeste 7 Noroeste 0 -- -- 96
2020-11-18 07:00:00 6.7 2 Norte 6 Norte 0 -- -- 95
2020-11-18 06:00:00 6.6 3 Norte 7 Oeste 0 -- -- 94
2020-11-18 05:00:00 6.8 2 Noroeste 5 Este 0 -- -- 94
2020-11-18 04:00:00 6.5 2 Nordeste 5 Nordeste 0 -- -- 95
2020-11-18 03:00:00 5.9 2 Nordeste 5 Sur 0 -- -- 97
2020-11-18 02:00:00 5 0 Calma 5 Este 0 -- -- 98
2020-11-18 01:00:00 4.2 3 Norte 6 Norte 0 -- -- 99
2020-11-18 00:00:00 3.4 3 Este 6 Este 0 -- -- 98
2020-11-17 23:00:00 4 2 Nordeste 6 Nordeste 0 -- -- 98
2020-11-17 22:00:00 4.7 0 Calma 5 Noroeste 0 -- -- 97
2020-11-17 21:00:00 5.2 2 Nordeste 6 Norte 0 -- -- 96
2020-11-17 20:00:00 6.5 0 Calma 8 Nordeste 0 -- -- 93
2020-11-17 19:00:00 7.7 2 Nordeste 5 Este 0 -- -- 89
2020-11-17 18:00:00 9.1 0 Calma 8 Norte 0 -- -- 85
2020-11-17 17:00:00 11.7 5 Norte -- -- 0 -- -- 74
2020-11-17 16:00:00 20 0 Calma 7 Sur 0 -- -- 50
2020-11-17 15:00:00 18.5 6 Sur 9 Sur 0 -- -- 49
2020-11-17 14:00:00 17.3 3 Sur 6 Sur 0 -- -- 54
2020-11-17 13:00:00 13.1 3 Sudeste 5 Sur 0 -- -- 65
2020-11-17 12:00:00 7.9 2 Este 5 Sudeste 0 -- -- 92
2020-11-17 11:00:00 2.8 2 Este 5 Este 0 -- -- 100
2020-11-17 10:00:00 -0.7 0 Calma 4 Norte 0 -- -- 100
2020-11-17 09:00:00 -1.1 2 Norte 4 Norte 0 -- -- 100
2020-11-17 08:00:00 -1.4 0 Calma 4 Norte 0 -- -- 100
2020-11-17 07:00:00 -1 2 Norte 5 Noroeste 0 -- -- 100
2020-11-17 06:00:00 -0.8 2 Norte 5 Noroeste 0 -- -- 100
2020-11-17 05:00:00 -0.7 2 Norte 5 Norte 0 -- -- 100
2020-11-17 04:00:00 -0.3 2 Norte 5 Noroeste 0 -- -- 99
2020-11-17 03:00:00 -0.2 0 Calma 5 Norte 0 -- -- 99
2020-11-17 02:00:00 0.6 0 Calma 6 Norte 0 -- -- 100
2020-11-17 01:00:00 1 3 Norte 6 Norte 0 -- -- 99
2020-11-17 00:00:00 1.3 3 Norte 6 Nordeste 0 -- -- 98
2020-11-16 23:00:00 2.2 2 Norte 4 Noroeste 0 -- -- 98
2020-11-16 22:00:00 2.7 3 Nordeste 7 Norte 0 -- -- 97
2020-11-16 21:00:00 3.5 3 Nordeste 5 Nordeste 0 -- -- 96
2020-11-16 20:00:00 4.4 0 Calma 5 Norte 0 -- -- 94
2020-11-16 19:00:00 5.9 3 Norte 8 Norte 0 -- -- 90
2020-11-16 18:00:00 7.4 6 Norte 9 Nordeste 0 -- -- 81
2020-11-16 17:00:00 8.8 6 Norte 9 Norte 0 -- -- 75
2020-11-16 16:00:00 14.1 5 Norte 17 Sur 0 -- -- 56
2020-11-16 15:00:00 15.6 5 Sudoeste 15 Sur 0 -- -- 51
2020-11-16 14:00:00 15.1 2 Sudeste 6 Sur 0 -- -- 57
2020-11-16 13:00:00 12.1 4 Sur 8 Sur 0.2 -- -- 67
2020-11-16 12:00:00 9.1 5 Sur 8 Sur 0 -- -- 77
2020-11-16 11:00:00 6 3 Este 6 Sudeste 0 -- -- 95
2020-11-16 10:00:00 2.9 2 Nordeste 8 Norte 0 -- -- 99
2020-11-16 09:00:00 2.2 3 Norte 6 Norte 0 -- -- 99
2020-11-16 08:00:00 2.2 5 Norte 8 Norte 0 -- -- 99
2020-11-16 07:00:00 3.2 3 Nordeste 8 Norte 0 -- -- 99
2020-11-16 06:00:00 4 3 Nordeste 5 Este 0 -- -- 99
2020-11-16 05:00:00 5.2 4 Norte 5 Norte 0 -- -- 98
2020-11-16 04:00:00 6.1 0 Calma 5 Sudoeste 0 -- -- 98
2020-11-16 03:00:00 6.2 2 Norte 7 Norte 0 -- -- 98
2020-11-16 02:00:00 6.8 3 Nordeste 7 Norte 0 -- -- 99
2020-11-16 01:00:00 6.7 2 Oeste 5 Nordeste 0 -- -- 99
2020-11-16 00:00:00 7.6 0 Calma 5 Sur 0 -- -- 98
2020-11-15 23:00:00 8.3 2 Norte 10 Sur 0 -- -- 97
2020-11-15 22:00:00 8.5 0 Calma 7 Sur 0 -- -- 96
2020-11-15 21:00:00 10 2 Oeste 18 Noroeste 0 -- -- 90
2020-11-15 20:00:00 10.8 12 Norte 26 Noroeste 0 -- -- 85
2020-11-15 19:00:00 10.6 16 Noroeste 32 Noroeste 0 -- -- 89
2020-11-15 18:00:00 11.3 8 Noroeste 19 Noroeste 0.4 -- -- 93
2020-11-15 17:00:00 11.9 10 Norte 25 Norte 1 -- -- 92
2020-11-15 16:00:00 12.5 6 Sur 42 Sudoeste 1.8 -- -- 92
2020-11-15 15:00:00 13.1 24 Sur 50 Sur 0 -- -- 86
2020-11-15 14:00:00 14.1 23 Sur 45 Sur 0 -- -- 79
2020-11-15 13:00:00 13.4 21 Sur 42 Sur 0.8 -- -- 87
2020-11-15 12:00:00 12.7 17 Sur 59 Sur 1.4 -- -- 91
2020-11-15 11:00:00 12.4 24 Sur 50 Sur 2.2 -- -- 92
2020-11-15 10:00:00 12.7 21 Sur 57 Sur 1.8 -- -- 88
2020-11-15 09:00:00 12.8 30 Sudoeste 57 Sur 0.2 -- -- 87
2020-11-15 08:00:00 13.5 26 Sur 57 Sur 0.2 -- -- 82
2020-11-15 07:00:00 13.1 12 Sudoeste 51 Sur 0 -- -- 83
2020-11-15 06:00:00 13.6 21 Sudoeste 53 Sur 0 -- -- 79
2020-11-15 05:00:00 13.1 20 Sudoeste 47 Sur 0.2 -- -- 82
2020-11-15 04:00:00 13.2 23 Sur 54 Sudoeste 0 -- -- 82
2020-11-15 03:00:00 13.3 23 Sudoeste 52 Sur 0 -- -- 79
2020-11-15 02:00:00 12.6 25 Sudoeste 49 Sudoeste 0 -- -- 83
2020-11-15 01:00:00 11.3 13 Sudoeste 32 Sudoeste 1 -- -- 92
2020-11-15 00:00:00 11.2 10 Sudoeste 40 Sur 0 -- -- 90
2020-11-14 23:00:00 11.7 23 Sur 44 Sur 0 -- -- 85
2020-11-14 22:00:00 13.3 28 Sudoeste 49 Sur 0 -- -- 72
2020-11-14 21:00:00 13 28 Sudoeste 54 Sur 0 -- -- 74
2020-11-14 20:00:00 13 22 Sur 49 Sur 0 -- -- 74
2020-11-14 19:00:00 12.9 17 Sudoeste 46 Sudoeste 0 -- -- 74
2020-11-14 18:00:00 12.9 23 Sur 44 Sur 0 -- -- 74
2020-11-14 17:00:00 13 22 Sur 43 Sur 0 -- -- 72
2020-11-14 16:00:00 13.3 13 Sudoeste 30 Sur 0 -- -- 69
2020-11-14 15:00:00 12.8 8 Sur 24 Sudoeste 0 -- -- 67
2020-11-14 14:00:00 13.5 12 Sudoeste 30 Sur 0 -- -- 63
2020-11-14 13:00:00 13.1 15 Sudoeste 36 Sur 0 -- -- 62
2020-11-14 12:00:00 12.2 16 Sudoeste 30 Sudoeste 0 -- -- 66
2020-11-14 11:00:00 5 2 Sur 9 Sur 0 -- -- 98
2020-11-14 10:00:00 0.5 3 Nordeste 6 Noroeste 0 -- -- 100
2020-11-14 09:00:00 -0.3 2 Norte 6 Este 0 -- -- 99
2020-11-14 08:00:00 -0.3 4 Norte 5 Norte 0 -- -- 100
2020-11-14 07:00:00 -0.2 0 Calma 6 Norte 0 -- -- 99
2020-11-14 06:00:00 0.2 2 Este 7 Norte 0 -- -- 99
2020-11-14 05:00:00 0.3 2 Este 5 Norte 0 -- -- 98
2020-11-14 04:00:00 1 3 Nordeste 5 Sudeste 0 -- -- 98
2020-11-14 03:00:00 1.5 2 Nordeste 4 Este 0 -- -- 98
2020-11-14 02:00:00 2.3 0 Calma 4 Nordeste 0 -- -- 98
2020-11-14 01:00:00 2.7 2 Este 5 Norte 0 -- -- 97
2020-11-14 00:00:00 -- -- -- -- -- -- -- -- --
2020-11-13 23:00:00 3.6 2 Nordeste 9 Norte 0 -- -- 93
2020-11-13 22:00:00 6 3 Norte 9 Noroeste 0 -- -- 89
2020-11-13 21:00:00 4.8 2 Nordeste 6 Norte 0 -- -- 92
2020-11-13 20:00:00 5.9 2 Este 8 Noroeste 0 -- -- 88
2020-11-13 19:00:00 7.3 4 Norte 9 Sur 0 -- -- 79
2020-11-13 18:00:00 10.9 6 Sudoeste 14 Sur 0 -- -- 67
2020-11-13 17:00:00 13.3 7 Sudoeste 27 Sur 0 -- -- 57
2020-11-13 16:00:00 16.9 17 Sur 33 Sur 0 -- -- 39
2020-11-13 15:00:00 17.2 18 Sur 25 Sur 0 -- -- 40
2020-11-13 14:00:00 16.8 7 Sur 10 Sur 0 -- -- 53
2020-11-13 13:00:00 13.8 6 Sur 8 Sur 0 -- -- 62
2020-11-13 12:00:00 11 4 Sudeste 7 Sur 0 -- -- 77
2020-11-13 11:00:00 7.5 5 Sur 8 Sur 0 -- -- 96
2020-11-13 10:00:00 4.3 0 Calma 6 Este 0 -- -- 99
2020-11-13 09:00:00 3.7 7 Norte 10 Norte 0 -- -- 100
2020-11-13 08:00:00 4.1 3 Noroeste 11 Norte 0 -- -- 100
2020-11-13 07:00:00 4 2 Sudeste 7 Norte 0 -- -- 100
2020-11-13 06:00:00 4.6 0 Calma 5 Norte 0 -- -- 99
2020-11-13 05:00:00 5 0 Calma 6 Norte 0 -- -- 99
2020-11-13 04:00:00 5.1 0 Calma 6 Norte 0 -- -- 99
2020-11-13 03:00:00 5.3 2 Nordeste 6 Nordeste 0 -- -- 98
2020-11-13 02:00:00 5.1 0 Calma 5 Norte 0 -- -- 98
2020-11-13 01:00:00 5.6 3 Norte 6 Este 0 -- -- 98
2020-11-13 00:00:00 5.9 -- -- -- -- 0 -- -- 97
2020-11-12 23:00:00 6 0 Calma 4 Este -- -- -- 96
2020-11-12 22:00:00 6.3 0 Calma 5 Nordeste 0 -- -- 96
2020-11-12 21:00:00 6.9 2 Nordeste 4 Norte 0 -- -- 93
2020-11-12 20:00:00 7.8 0 Calma 5 Noroeste 0 -- -- 92
2020-11-12 19:00:00 10.1 4 Noroeste 20 Sudoeste 0 -- -- 85
2020-11-12 18:00:00 12.7 14 Sur 25 Sur 0 -- -- 74
2020-11-12 17:00:00 14.1 15 Sudoeste 25 Sudoeste 0 -- -- 70
2020-11-12 16:00:00 15.8 16 Sur 27 Sur 0 -- -- 65
2020-11-12 15:00:00 17.7 9 Sur 13 Sur 0 -- -- 59
2020-11-12 14:00:00 17 8 Sur 18 Sur 0 -- -- 62
2020-11-12 13:00:00 15 12 Sur 19 Sur 0 -- -- 71
2020-11-12 12:00:00 13.3 6 Sur -- -- -- -- -- 77
2020-11-12 11:00:00 9.8 6 Sur 8 Sur 0 -- -- 95
2020-11-12 10:00:00 7.7 0 Calma 5 Norte 0 -- -- 98
2020-11-12 09:00:00 7.3 2 Norte 5 Norte 0 -- -- 98
2020-11-12 08:00:00 7.3 2 Sudoeste 5 Norte 0 -- -- 98
2020-11-12 07:00:00 7.3 3 Norte 6 Noroeste 0.2 -- -- 98
2020-11-12 06:00:00 7.4 4 Norte 8 Noroeste 0.2 -- -- 98
2020-11-12 05:00:00 7.4 4 Noroeste 5 Noroeste 0.2 -- -- 96
2020-11-12 04:00:00 7.7 0 Calma 3 Norte 0 -- -- 93
2020-11-12 03:00:00 8 2 Este 5 Sudoeste 0 -- -- 92
2020-11-12 02:00:00 8 2 Noroeste 5 Noroeste 0 -- -- 91
2020-11-12 01:00:00 8.1 2 Oeste 6 Norte 0 -- -- 90
2020-11-12 00:00:00 8.6 4 Norte 10 Norte 0 -- -- 86
2020-11-11 23:00:00 8.7 3 Sudeste 14 Sur 0 -- -- 85
2020-11-11 22:00:00 9.4 6 Sudoeste 24 Sur 0 -- -- 77
2020-11-11 21:00:00 9.1 0 Calma 19 Sur 0 -- -- 80
2020-11-11 20:00:00 9.4 8 Sur 22 Sur 0 -- -- 77
2020-11-11 19:00:00 9.2 4 Este 23 Sur 0 -- -- 79
2020-11-11 18:00:00 10.2 16 Sur 30 Sur 0 -- -- 72
2020-11-11 17:00:00 11 14 Sur 44 Sudoeste 0 -- -- 64
2020-11-11 16:00:00 11.8 27 Sur 50 Sur 0 -- -- 61
2020-11-11 15:00:00 12.2 24 Sur 47 Sudoeste 0 -- -- 60
2020-11-11 14:00:00 11.8 23 Sur 40 Sur 0 -- -- 64
2020-11-11 13:00:00 11.6 19 Sur 31 Sur 0 -- -- 64
2020-11-11 12:00:00 9.5 2 Sur 5 Sudeste 0 -- -- 78
2020-11-11 11:00:00 5.6 4 Sudeste 8 Sudeste 0 -- -- 96
2020-11-11 10:00:00 0.8 0 Calma 6 Este 0 -- -- 100
2020-11-11 09:00:00 0.5 3 Nordeste 5 Norte 0 -- -- 100
2020-11-11 08:00:00 0.6 0 Calma 5 Noroeste 0 -- -- 99
2020-11-11 07:00:00 0.8 2 Norte 5 Norte 0 -- -- 99
2020-11-11 06:00:00 0.6 0 Calma 8 Este 0 -- -- 99
2020-11-11 05:00:00 1 2 Nordeste 5 Nordeste 0 -- -- 99
2020-11-11 04:00:00 1.4 0 Calma 4 Norte 0 -- -- 99
2020-11-11 03:00:00 2.1 0 Calma 5 Norte 0 -- -- 97
2020-11-11 02:00:00 2.5 2 Norte 5 Este 0 -- -- 97
2020-11-11 01:00:00 2.6 4 Nordeste 5 Norte 0 -- -- 97
2020-11-11 00:00:00 2.9 2 Noroeste 8 Norte 0 -- -- 95
2020-11-10 23:00:00 3.2 5 Norte 8 Norte 0 -- -- 94
2020-11-10 22:00:00 3.9 0 Calma 12 Norte 0 -- -- 90
2020-11-10 21:00:00 5.3 3 Este 12 Norte 0 -- -- 88
2020-11-10 20:00:00 5.2 3 Norte 8 Norte 0 -- -- 93
2020-11-10 19:00:00 6.3 0 Calma 8 Norte 0 -- -- 89
2020-11-10 18:00:00 8.9 2 Sur 16 Sudoeste 0 -- -- 81
2020-11-10 17:00:00 12 10 Sudoeste 16 Sudoeste 0 -- -- 67
2020-11-10 16:00:00 15.8 7 Sudoeste 18 Sudoeste 0 -- -- 57
2020-11-10 15:00:00 16.3 2 Oeste 6 Noroeste 0 -- -- 51
2020-11-10 14:00:00 14.6 3 Sur 8 Sudeste 0 -- -- 53
2020-11-10 13:00:00 11.8 5 Sudeste 8 Sudeste 0 -- -- 66
2020-11-10 12:00:00 8.8 4 Sudeste 10 Sudeste 0 -- -- 75
2020-11-10 11:00:00 6.5 5 Este 10 Este 0 -- -- 84
2020-11-10 10:00:00 5.1 5 Nordeste 12 Este 0 -- -- 88
2020-11-10 09:00:00 4.7 5 Norte 10 Norte 0 -- -- 89
2020-11-10 08:00:00 4.8 5 Norte 9 Norte 0 -- -- 91
2020-11-10 07:00:00 5 3 Norte 4 Norte 0 -- -- 93
2020-11-10 06:00:00 5 -- -- -- -- 0 -- -- 92
2020-11-10 05:00:00 4.8 2 Norte 5 Nordeste 0 -- -- 96
2020-11-10 04:00:00 4.1 3 Norte 5 Norte 0 -- -- 97
2020-11-10 03:00:00 4.4 0 Calma 5 Norte 0 -- -- 96
2020-11-10 02:00:00 4.4 4 Norte 8 Norte 0 -- -- 95
2020-11-10 01:00:00 5.7 3 Noroeste 9 Norte 0 -- -- 94
2020-11-10 00:00:00 6.4 4 Noroeste 10 Norte 0 -- -- 94
2020-11-09 23:00:00 7 3 Noroeste 5 Norte 0 -- -- 97
2020-11-09 22:00:00 7.2 3 Norte 5 Norte 0 -- -- 98
2020-11-09 21:00:00 7.7 2 Norte 5 Sur 0.2 -- -- 98
2020-11-09 20:00:00 8.6 0 Calma 4 Sur 0 -- -- 97
2020-11-09 19:00:00 8.9 2 Oeste 8 Sur 0 -- -- 95
2020-11-09 18:00:00 9.3 6 Sudoeste 15 Sudoeste 0.4 -- -- 92
2020-11-09 17:00:00 11 9 Sur 18 Sudoeste 0 -- -- 81
2020-11-09 16:00:00 11.5 13 Sudoeste 24 Sur 0.2 -- -- 76
2020-11-09 15:00:00 13.8 15 Sur 30 Sur 0 -- -- 70
2020-11-09 14:00:00 -- -- -- -- -- -- -- -- --
2020-11-09 13:00:00 -- -- -- -- -- -- -- -- --
2020-11-09 12:00:00 -- -- -- -- -- -- -- -- --
2020-11-09 11:00:00 -- -- -- -- -- -- -- -- --
2020-11-09 10:00:00 -- -- -- -- -- -- -- -- --
2020-11-09 09:00:00 -- -- -- -- -- -- -- -- --
2020-11-09 08:00:00 -- -- -- -- -- -- -- -- --
2020-11-09 07:00:00 -- -- -- -- -- -- -- -- --
2020-11-09 06:00:00 -- -- -- -- -- -- -- -- --
2020-11-09 05:00:00 -- -- -- -- -- -- -- -- --
2020-11-09 04:00:00 -- -- -- -- -- -- -- -- --
2020-11-09 03:00:00 -- -- -- -- -- -- -- -- --
2020-11-09 02:00:00 -- -- -- -- -- -- -- -- --
2020-11-09 01:00:00 -- -- -- -- -- -- -- -- --
2020-11-09 00:00:00 -- -- -- -- -- -- -- -- --
2020-11-08 23:00:00 10.5 2 Noroeste 17 Sudeste 0 -- -- 71
2020-11-08 22:00:00 10.7 4 Sudeste 26 Sur 0 -- -- 72
2020-11-08 21:00:00 10.8 3 Noroeste 17 Sudoeste 0 -- -- 70
2020-11-08 20:00:00 11 5 Este 19 Sur 0 -- -- 75
2020-11-08 19:00:00 12.4 18 Sur 43 Sur 0 -- -- 66
2020-11-08 18:00:00 12.7 18 Sur 33 Sudoeste 0 -- -- 64
2020-11-08 17:00:00 12.9 10 Sur 27 Sudoeste 0 -- -- 70
2020-11-08 16:00:00 13.2 10 Sudoeste 35 Sur 0 -- -- 65
2020-11-08 15:00:00 15.2 18 Sur 49 Sudoeste 0 -- -- 55
2020-11-08 14:00:00 13.9 19 Sur 38 Sur 0 -- -- 61
2020-11-08 13:00:00 13.4 12 Sur 41 Sudoeste 0 -- -- 66
2020-11-08 12:00:00 13 23 Sur 41 Sudoeste 0.2 -- -- 65
2020-11-08 11:00:00 12.1 13 Sur 26 Sudoeste 0.4 -- -- 72
2020-11-08 10:00:00 11.7 11 Sudeste 35 Sudeste 0.2 -- -- 79
2020-11-08 09:00:00 10 3 Norte 22 Sudeste 0 -- -- 85
2020-11-08 08:00:00 10.3 8 Sudeste 28 Sudoeste 0 -- -- 80
2020-11-08 07:00:00 10.4 10 Sur 27 Sudoeste 0.2 -- -- 83
2020-11-08 06:00:00 8.9 0 Calma 9 Norte 0.4 -- -- 95
2020-11-08 05:00:00 9.6 3 Norte 15 Sur 1 -- -- 91
2020-11-08 04:00:00 10.9 7 Sudeste 21 Sudeste 0 -- -- 81
2020-11-08 03:00:00 10.4 5 Noroeste 20 Sur 0 -- -- 84
2020-11-08 02:00:00 9.7 4 Norte 10 Noroeste 0 -- -- 85
2020-11-08 01:00:00 8 2 Nordeste 16 Este 0 -- -- 92
2020-11-08 00:00:00 6.9 2 Sudoeste 7 Sur 0 -- -- 95
2020-11-07 23:00:00 8.1 -- -- -- -- 0 -- -- 92
2020-11-07 22:00:00 9.4 2 Nordeste 6 Este 0 -- -- 89
2020-11-07 21:00:00 9.7 0 Calma 14 Sudeste 0 -- -- 86
2020-11-07 20:00:00 10.3 8 Sur 23 Sur 0 -- -- 84
2020-11-07 19:00:00 11.1 7 Sudoeste 28 Sur 0 -- -- 74
2020-11-07 18:00:00 11.8 13 Sudoeste 27 Sur 0 -- -- 70
2020-11-07 17:00:00 11.6 8 Sur 22 Sur 0 -- -- 70
2020-11-07 16:00:00 12 15 Sur 33 Sur 0 -- -- 68
2020-11-07 15:00:00 13.2 13 Sur 31 Sur 0 -- -- 64
2020-11-07 14:00:00 13.1 14 Sur 31 Sudoeste 0 -- -- 66
2020-11-07 13:00:00 14.4 13 Sudoeste 28 Sudoeste 0 -- -- 59
2020-11-07 12:00:00 11.7 13 Sur 36 Sur 0 -- -- 71
2020-11-07 11:00:00 13.7 13 Sur 28 Sur 0 -- -- 63
2020-11-07 10:00:00 11.8 9 Sudoeste 17 Sudoeste 0 -- -- 72
2020-11-07 09:00:00 9.6 -- -- -- -- -- -- -- --
2020-11-07 08:00:00 9.4 0 Calma 5 Noroeste 0 -- -- 86
2020-11-07 07:00:00 9.5 2 Sur 22 Sur -- -- -- 84
2020-11-07 06:00:00 11.4 17 Sur 25 Sur 0 -- -- 73
2020-11-07 05:00:00 11 12 Sur 25 Sur 0 -- -- 77
2020-11-07 04:00:00 11.6 22 Sur 41 Sudoeste 0 -- -- 74
2020-11-07 03:00:00 12.1 20 Sur 44 Sudoeste 0 -- -- 69
2020-11-07 02:00:00 12.7 20 Sur 43 Sur 0 -- -- 66
2020-11-07 01:00:00 12.6 22 Sur 49 Sur 0 -- -- 66
2020-11-07 00:00:00 13.3 24 Sudoeste 51 Sudoeste 0 -- -- 62
2020-11-06 23:00:00 12.6 33 Sur 75 Sudoeste 1.2 -- -- 67
2020-11-06 22:00:00 13 13 Sur 56 Sur 0 -- -- 72
2020-11-06 21:00:00 15.1 22 Sudeste 68 Sur 0 -- -- 57
2020-11-06 20:00:00 15.8 24 Sudeste 62 Sudeste 0 -- -- 60
2020-11-06 19:00:00 15.8 28 Sudeste 60 Sudeste 0 -- -- 61
2020-11-06 18:00:00 15.6 24 Sudeste 63 Sudeste 0 -- -- 62
2020-11-06 17:00:00 15.2 23 Sudeste 56 Sudeste 0 -- -- 64
2020-11-06 16:00:00 15.3 23 Sudeste 61 Sur 0 -- -- 62
2020-11-06 15:00:00 14.9 19 Sudeste 54 Sur 0 -- -- 64
2020-11-06 14:00:00 15.1 32 Sudeste 87 Sur 0 -- -- 59
2020-11-06 13:00:00 15.7 9 Sudeste 33 Sudeste 0 -- -- 58
2020-11-06 12:00:00 14.3 11 Sur 31 Sudoeste 0 -- -- 67
2020-11-06 11:00:00 13.9 14 Sur 44 Sudeste 0 -- -- 64
2020-11-06 10:00:00 13.9 17 Sudeste 42 Sur 0.2 -- -- 61
2020-11-06 09:00:00 11.6 10 Este 41 Sudeste 0 -- -- 73
2020-11-06 08:00:00 11.9 12 Sudeste 37 Sur 0 -- -- 72
2020-11-06 07:00:00 11.5 17 Sudeste 40 Sudoeste 0 -- -- 67
2020-11-06 06:00:00 11.3 14 Sur 39 Sudeste 0.2 -- -- 75
2020-11-06 05:00:00 11 9 Sudeste 32 Nordeste 0 -- -- 83
2020-11-06 04:00:00 10.7 15 Este 43 Sur 0 -- -- 82
2020-11-06 03:00:00 11.4 22 Sur 39 Sur 0 -- -- 76
2020-11-06 02:00:00 10 4 Sudeste 22 Este 0 -- -- 87
2020-11-06 01:00:00 10.1 10 Este 34 Este 0.2 -- -- 84
2020-11-06 00:00:00 10.1 13 Este 31 Este 2.6 -- -- 86
2020-11-05 23:00:00 10.1 11 Nordeste 32 Norte 0.8 -- -- 86
2020-11-05 22:00:00 10.3 12 Nordeste 40 Este 0.8 -- -- 83
2020-11-05 21:00:00 10.6 8 Nordeste 31 Este 0.4 -- -- 82
2020-11-05 20:00:00 10.8 -- -- -- -- 1 -- -- 82
2020-11-05 19:00:00 11.2 6 Noroeste 22 Oeste 0.2 -- -- 78
2020-11-05 18:00:00 11.8 8 Norte 25 Sur 0 -- -- 73
2020-11-05 17:00:00 11.7 5 Norte 28 Sudoeste 0 -- -- 71
2020-11-05 16:00:00 11.6 11 Norte 33 Nordeste 0 -- -- 71
2020-11-05 15:00:00 11.9 8 Nordeste 22 Nordeste 0 -- -- 69
2020-11-05 14:00:00 11.9 7 Norte 33 Nordeste 0 -- -- 67
2020-11-05 13:00:00 11.6 9 Noroeste 47 Este 0 -- -- 67
2020-11-05 12:00:00 11.6 13 Norte 40 Sudoeste 0 -- -- 67
2020-11-05 11:00:00 11.7 12 Sudoeste 47 Sudoeste 0 -- -- 64
2020-11-05 10:00:00 11.4 10 Norte 26 Este 0 -- -- 64
2020-11-05 09:00:00 10.9 9 Nordeste 41 Este 0 -- -- 66
2020-11-05 08:00:00 10.5 12 Nordeste 33 Nordeste 0 -- -- 68
2020-11-05 07:00:00 10.5 12 Norte 31 Nordeste 0 -- -- 68
2020-11-05 06:00:00 10.1 -- -- -- -- 0 -- -- 68
2020-11-05 05:00:00 9.9 13 Oeste 33 Nordeste 0 -- -- 68
2020-11-05 04:00:00 9.2 8 Norte 23 Nordeste 0 -- -- 67
2020-11-05 03:00:00 8.1 12 Norte 24 Norte 0 -- -- 67
2020-11-05 02:00:00 7.2 5 Norte 18 Este 0 -- -- 68
2020-11-05 01:00:00 6.2 6 Norte 22 Norte 0 -- -- 69
2020-11-05 00:00:00 5.7 10 Norte 18 Norte 0 -- -- 70
2020-11-04 23:00:00 5.6 10 Norte 21 Norte 0 -- -- 68
2020-11-04 22:00:00 5.4 5 Nordeste 15 Oeste 0 -- -- 65
2020-11-04 21:00:00 5.9 6 Norte 26 Este 0 -- -- 63
2020-11-04 20:00:00 5.7 6 Este 18 Este -- -- -- 63
2020-11-04 19:00:00 6 6 Nordeste 19 Nordeste 0 -- -- 64
2020-11-04 18:00:00 6.4 9 Norte 16 Norte 0 -- -- 66
2020-11-04 17:00:00 7.3 8 Nordeste 21 Nordeste 0 -- -- 60
2020-11-04 16:00:00 8 9 Norte 22 Norte -- -- -- 56
2020-11-04 15:00:00 8 12 Norte 25 Norte 0 -- -- 60
2020-11-04 14:00:00 9.4 8 Nordeste 19 Este 0 -- -- 56
2020-11-04 13:00:00 9.3 8 Este 22 Este 0 -- -- 57
2020-11-04 12:00:00 5.7 4 Este 11 Nordeste 0 -- -- 72
2020-11-04 11:00:00 1 2 Sudeste 5 Sudeste 0 -- -- 97
2020-11-04 10:00:00 -1.2 0 Calma 5 Noroeste 0 -- -- 99
2020-11-04 09:00:00 -1.5 3 Nordeste 4 Nordeste 0 -- -- 99
2020-11-04 08:00:00 -2.6 0 Calma 6 Norte 0 -- -- 99
2020-11-04 07:00:00 -2.8 0 Calma 7 Norte 0 -- -- 100
2020-11-04 06:00:00 -2.7 -- -- -- -- 0 -- -- 99
2020-11-04 05:00:00 -2.5 3 Este 8 Norte 0 -- -- 99
2020-11-04 04:00:00 -2.5 0 Calma 5 Norte 0 -- -- 99
2020-11-04 03:00:00 -2.1 2 Norte 4 Norte 0 -- -- 99
2020-11-04 02:00:00 -1.5 3 Noroeste 5 Norte 0 -- -- 99
2020-11-04 01:00:00 -0.9 4 Norte 10 Norte 0 -- -- 98
2020-11-04 00:00:00 -0.5 5 Norte 9 Norte 0 -- -- 98
2020-11-03 23:00:00 -0.3 0 Calma 6 Noroeste -- -- -- 97
2020-11-03 22:00:00 0.5 4 Norte 6 Noroeste 0 -- -- 96
2020-11-03 21:00:00 1.3 3 Norte 8 Norte 0 -- -- 93
2020-11-03 20:00:00 3 6 Norte 15 Nordeste 0 -- -- 87
2020-11-03 19:00:00 4.3 4 Nordeste 17 Noroeste 0 -- -- 81
2020-11-03 18:00:00 5.7 13 Noroeste 21 Noroeste 0 -- -- 73
2020-11-03 17:00:00 6.5 12 Noroeste 28 Noroeste 0 -- -- 68
2020-11-03 16:00:00 7.9 12 Noroeste 24 Noroeste 0 -- -- 68
2020-11-03 15:00:00 -- -- -- -- -- -- -- -- --
2020-11-03 14:00:00 -- -- -- -- -- -- -- -- --
2020-11-03 13:00:00 -- -- -- -- -- -- -- -- --
2020-11-03 12:00:00 8 13 Noroeste 28 Noroeste 0 -- -- 75
2020-11-03 11:00:00 7.3 12 Noroeste 25 Noroeste 0 -- -- 79
2020-11-03 10:00:00 4.5 2 Este 6 Norte 0 -- -- 90
2020-11-03 09:00:00 2.8 3 Norte 5 Nordeste 0 -- -- 95
2020-11-03 08:00:00 2.3 2 Norte 4 Oeste 0 -- -- 95
2020-11-03 07:00:00 2.1 2 Este 11 Norte 0 -- -- 95
2020-11-03 06:00:00 1.5 6 Norte 9 Noroeste 0 -- -- 97
2020-11-03 05:00:00 1.3 4 Noroeste 10 Norte 0 -- -- 96
2020-11-03 04:00:00 2.4 3 Nordeste 8 Noroeste 0 -- -- 95
2020-11-03 03:00:00 4.1 3 Sudoeste 8 Sudeste 0 -- -- 95
2020-11-03 02:00:00 5.5 3 Este 10 Nordeste 0 -- -- 90
2020-11-03 01:00:00 7.5 4 Nordeste 13 Noroeste 0 -- -- 88
2020-11-03 00:00:00 8 7 Norte 26 Noroeste 0 -- -- 87
2020-11-02 23:00:00 8.5 13 Norte 23 Noroeste 0 -- -- 87
2020-11-02 22:00:00 8.7 0 Calma 5 Sudeste 0 -- -- 98
2020-11-02 21:00:00 9.2 2 Oeste 4 Sudoeste 0 -- -- 98
2020-11-02 20:00:00 -- -- -- -- -- -- -- -- --
2020-11-02 19:00:00 -- -- -- -- -- -- -- -- --
2020-11-02 18:00:00 -- -- -- -- -- -- -- -- --
2020-11-02 17:00:00 -- -- -- -- -- -- -- -- --
2020-11-02 16:00:00 13.3 4 Este 27 Noroeste 0 -- -- 92
2020-11-02 15:00:00 13.7 6 Nordeste 22 Sur 1.2 -- -- 91
2020-11-02 14:00:00 14.7 10 Sudoeste 21 Sudoeste 0.2 -- -- 88
2020-11-02 13:00:00 14.6 2 Este 17 Noroeste 0 -- -- 87
2020-11-02 12:00:00 15 9 Sudoeste 32 Sur 0 -- -- 78
2020-11-02 11:00:00 14.7 7 Sudoeste 23 Sur 0 -- -- 78
2020-11-02 10:00:00 14.4 12 Sudoeste 26 Sur 0 -- -- 80
2020-11-02 09:00:00 13.9 10 Sur 35 Sur 0 -- -- 82
2020-11-02 08:00:00 13.3 13 Sudoeste 27 Sur 0 -- -- 87
2020-11-02 07:00:00 13.7 12 Sur 37 Sur 0 -- -- 85
2020-11-02 06:00:00 13.8 9 Sur 28 Sur 0 -- -- 85
2020-11-02 05:00:00 13.9 13 Sudoeste 28 Sur 0 -- -- 84
2020-11-02 04:00:00 14.7 6 Sudoeste 34 Sur 0 -- -- 77
2020-11-02 03:00:00 14.5 18 Sudoeste 35 Sur 0 -- -- 81
2020-11-02 02:00:00 14.8 18 Sudoeste 45 Sudoeste 0 -- -- 80
2020-11-02 01:00:00 15.2 13 Sur 50 Sur 0 -- -- 77
2020-11-02 00:00:00 15.3 19 Sur 41 Sur 0 -- -- 75
2020-11-01 23:00:00 15.4 18 Sudoeste 39 Sur 0 -- -- 77
2020-11-01 22:00:00 15.4 23 Sudoeste 41 Sudoeste 0 -- -- 79
2020-11-01 21:00:00 15.7 21 Sudoeste 35 Sur 0 -- -- 78
2020-11-01 20:00:00 15.2 8 Sudoeste 27 Sur 0 -- -- 83
2020-11-01 19:00:00 15.1 12 Sudoeste 27 Sudoeste 0 -- -- 84
2020-11-01 18:00:00 15.1 10 Sudoeste 21 Sudoeste 0 -- -- 85
2020-11-01 17:00:00 14.5 4 Este 19 Sudoeste 0 -- -- 89
2020-11-01 16:00:00 14.9 6 Sudoeste 24 Sudoeste 0 -- -- 87
2020-11-01 15:00:00 15 10 Sudoeste 24 Sur 0 -- -- 85
2020-11-01 14:00:00 15.4 13 Sur 27 Sur 0 -- -- 83
2020-11-01 13:00:00 15.4 8 Sudoeste 22 Sur 0 -- -- 82
2020-11-01 12:00:00 15.1 4 Sudeste 9 Este 0 -- -- 82
2020-11-01 11:00:00 14.5 2 Este 12 Sur 0 -- -- 85
2020-11-01 10:00:00 13.3 5 Sudeste 14 Sur 0 -- -- 90
2020-11-01 09:00:00 13.1 5 Sudeste 18 Sudoeste 0 -- -- 89
2020-11-01 08:00:00 13.2 12 Sudoeste 26 Sudoeste 0 -- -- 89
2020-11-01 07:00:00 12.5 12 Sudoeste 27 Oeste 0 -- -- 93
2020-11-01 06:00:00 13.2 10 Oeste 20 Oeste 0 -- -- 86
2020-11-01 05:00:00 13.4 6 Sudoeste 25 Sudoeste 0 -- -- 83
2020-11-01 04:00:00 13.9 15 Sudoeste 29 Sur 0 -- -- 80
2020-11-01 03:00:00 13.6 12 Sudoeste 28 Sur 0 -- -- 83
2020-11-01 02:00:00 12.8 9 Sudoeste 27 Sur 0 -- -- 89
2020-11-01 01:00:00 13.9 11 Sudoeste 27 Sur 0 -- -- 80
2020-11-01 00:00:00 14.1 10 Sur 35 Sur 0 -- -- 79
2020-10-31 23:00:00 14.6 14 Sudoeste 28 Sur 0 -- -- 75
2020-10-31 22:00:00 14.6 15 Sur 34 Sur 0 -- -- 75
2020-10-31 21:00:00 14.4 10 Sudoeste 24 Sudoeste 0 -- -- 77
2020-10-31 20:00:00 14.7 7 Sudoeste 17 Oeste 0 -- -- 76
2020-10-31 19:00:00 14.5 5 Sudoeste 20 Sur 0 -- -- 77
2020-10-31 18:00:00 14.8 10 Oeste 33 Sur 0 -- -- 76
2020-10-31 17:00:00 14.9 10 Sudoeste 30 Sur 0 -- -- 77
2020-10-31 16:00:00 14.5 14 Sudoeste 29 Sur 0 -- -- 78
2020-10-31 15:00:00 14.6 12 Sudoeste 38 Sur 0 -- -- 77
2020-10-31 14:00:00 14.7 14 Sur 30 Sur 0 -- -- 75
2020-10-31 13:00:00 14.2 21 Sur 49 Sur 0 -- -- 75
2020-10-31 12:00:00 14.1 15 Sudoeste 31 Sudoeste 0 -- -- 74
2020-10-31 11:00:00 13.4 17 Sudoeste 35 Sur 0 -- -- 79
2020-10-31 10:00:00 10.6 4 Noroeste 14 Nordeste 0 -- -- 100
2020-10-31 09:00:00 6.2 3 Oeste 10 Sudoeste 0 -- -- 100
2020-10-31 08:00:00 4.3 3 Sudoeste 9 Este 0 -- -- 100
2020-10-31 07:00:00 3.5 3 Noroeste 8 Norte 0 -- -- 100
2020-10-31 06:00:00 2.4 0 Calma 4 Norte 0 -- -- 100
2020-10-31 05:00:00 1.8 3 Norte 6 Noroeste 0 -- -- 100
2020-10-31 04:00:00 1.5 5 Norte 9 Nordeste 0 -- -- 99
2020-10-31 03:00:00 1.7 3 Norte 6 Nordeste 0 -- -- 99
2020-10-31 02:00:00 2.2 0 Calma 6 Norte 0 -- -- 100
2020-10-31 01:00:00 2.2 0 Calma 7 Nordeste 0 -- -- 99
2020-10-31 00:00:00 2.9 2 Norte 5 Norte 0 -- -- 99
2020-10-30 23:00:00 3.6 3 Norte 6 Este 0 -- -- 99
2020-10-30 22:00:00 4.3 3 Nordeste 5 Sudeste 0 -- -- 98
2020-10-30 21:00:00 5 2 Norte 5 Norte 0 -- -- 96
2020-10-30 20:00:00 6.3 0 Calma 6 Norte 0 -- -- 93
2020-10-30 19:00:00 8.5 3 Norte 12 Norte 0 -- -- 86
2020-10-30 18:00:00 10.8 3 Noroeste 8 Sudoeste 0 -- -- 75
2020-10-30 17:00:00 13.8 4 Noroeste 29 Sur 0 -- -- 60
2020-10-30 16:00:00 18.8 15 Sudoeste 29 Sur 0 -- -- 44
2020-10-30 15:00:00 19.1 19 Sudoeste 28 Sudoeste 0 -- -- 41
2020-10-30 14:00:00 17.8 3 Sur 9 Sur 0 -- -- 49
2020-10-30 13:00:00 13.2 2 Nordeste 8 Sur 0 -- -- 60
2020-10-30 12:00:00 9.9 4 Sudeste 6 Sur 0 -- -- 76
2020-10-30 11:00:00 6.2 3 Sudeste 5 Sudeste 0 -- -- 97
2020-10-30 10:00:00 2.1 2 Sudeste 4 Nordeste 0 -- -- 100
2020-10-30 09:00:00 -0.1 2 Norte 4 Norte 0 -- -- 100
2020-10-30 08:00:00 -1.2 0 Calma 3 Nordeste 0 -- -- 100
2020-10-30 07:00:00 -0.9 3 Nordeste 5 Nordeste 0 -- -- 100
2020-10-30 06:00:00 -1.1 2 Noroeste 6 Norte 0 -- -- 100
2020-10-30 05:00:00 -0.9 0 Calma 6 Este 0 -- -- 100
2020-10-30 04:00:00 -0.5 2 Norte 4 Norte 0 -- -- 100
2020-10-30 03:00:00 0 2 Noroeste 4 Este 0 -- -- 100
2020-10-30 02:00:00 0.5 0 Calma 5 Nordeste 0 -- -- 100
2020-10-30 01:00:00 1.4 3 Este 5 Sudeste 0 -- -- 99
2020-10-30 00:00:00 2 0 Calma 3 Norte 0 -- -- 99
2020-10-29 23:00:00 2.5 0 Calma 5 Norte 0 -- -- 98
2020-10-29 22:00:00 3.4 3 Nordeste 5 Este 0 -- -- 98
2020-10-29 21:00:00 4.5 0 Calma 6 Norte 0 -- -- 97
2020-10-29 20:00:00 5.5 3 Noroeste 5 Este 0 -- -- 95
2020-10-29 19:00:00 7.5 3 Norte 9 Norte 0 -- -- 87
2020-10-29 18:00:00 9.9 7 Norte 10 Norte 0 -- -- 73
2020-10-29 17:00:00 12.4 3 Oeste 17 Sudoeste 0 -- -- 63
2020-10-29 16:00:00 19.7 3 Sudoeste 13 Sudeste 0 -- -- 44
2020-10-29 15:00:00 19.5 4 Sudoeste 9 Sur 0 -- -- 46
2020-10-29 14:00:00 17.3 4 Sur 8 Sur 0 -- -- 49
2020-10-29 13:00:00 13.2 5 Sur 9 Sur 0 -- -- 65
2020-10-29 12:00:00 9.1 4 Sur 8 Sur 0 -- -- 77
2020-10-29 11:00:00 5 3 Sudeste 6 Sur 0 -- -- 95
2020-10-29 10:00:00 1.5 3 Este 6 Norte 0 -- -- 99
2020-10-29 09:00:00 0.9 2 Nordeste 7 Este 0 -- -- 99
2020-10-29 08:00:00 0.9 2 Norte 5 Nordeste 0 -- -- 100
2020-10-29 07:00:00 1 3 Nordeste 5 Nordeste 0 -- -- 99
2020-10-29 06:00:00 0.8 0 Calma 6 Norte 0 -- -- 100
2020-10-29 05:00:00 0.5 2 Nordeste 6 Nordeste 0 -- -- 99
2020-10-29 04:00:00 0 0 Calma 7 Norte 0 -- -- 100
2020-10-29 03:00:00 0.1 0 Calma 5 Norte 0 -- -- 99
2020-10-29 02:00:00 0.3 3 Norte 5 Norte 0 -- -- 99
2020-10-29 01:00:00 1.2 2 Nordeste 5 Norte 0 -- -- 99
2020-10-29 00:00:00 2 0 Calma 7 Norte 0 -- -- 98
2020-10-28 23:00:00 2.7 0 Calma 6 Norte 0 -- -- 98
2020-10-28 22:00:00 3.6 2 Norte 6 Noroeste 0 -- -- 98
2020-10-28 21:00:00 4.4 3 Sur 7 Norte 0 -- -- 95
2020-10-28 20:00:00 5.7 0 Calma 9 Norte 0 -- -- 92
2020-10-28 19:00:00 8.9 7 Sudoeste 19 Sudoeste 0 -- -- 79
2020-10-28 18:00:00 10.1 13 Oeste 19 Oeste 0 -- -- 72
2020-10-28 17:00:00 11.4 12 Sur 31 Sudoeste 0 -- -- 67
2020-10-28 16:00:00 13.3 15 Sur 33 Sur 0 -- -- 61
2020-10-28 15:00:00 12.2 13 Sudoeste 23 Sur 0 -- -- 67
2020-10-28 14:00:00 11.5 15 Sudoeste 32 Sur 0 -- -- 66
2020-10-28 13:00:00 12.9 17 Sur 32 Sur 0 -- -- 61
2020-10-28 12:00:00 12.3 10 Sudoeste 29 Sur 0 -- -- 63
2020-10-28 11:00:00 11.3 13 Sudoeste 32 Sudoeste 0 -- -- 68
2020-10-28 10:00:00 9.5 5 Norte 14 Nordeste 0 -- -- 82
2020-10-28 09:00:00 8.3 5 Oeste 17 Oeste 0 -- -- 89
2020-10-28 08:00:00 6.5 5 Nordeste 13 Norte 0 -- -- 93
2020-10-28 07:00:00 6.5 5 Norte 14 Norte 0 -- -- 92
2020-10-28 06:00:00 7 8 Norte 40 Sur 0 -- -- 89
2020-10-28 05:00:00 9.3 26 Sur 46 Sur 0 -- -- 77
2020-10-28 04:00:00 9.7 7 Norte 19 Sudoeste 0 -- -- 84
2020-10-28 03:00:00 10.3 6 Norte 15 Norte 0 -- -- 87
2020-10-28 02:00:00 10.1 5 Norte 15 Norte 0 -- -- 92
2020-10-28 01:00:00 9.2 6 Norte 22 Oeste 0 -- -- 94
2020-10-28 00:00:00 10.7 10 Sudoeste 22 Sur 0 -- -- 90
2020-10-27 23:00:00 10.7 7 Sur 21 Sur 0 -- -- 91
2020-10-27 22:00:00 10.5 7 Norte 30 Sur 0.2 -- -- 93
2020-10-27 21:00:00 9.8 7 Sudoeste 22 Nordeste 0.4 -- -- 97
2020-10-27 20:00:00 9.6 4 Noroeste 33 Sudoeste 0.4 -- -- 95
2020-10-27 19:00:00 9.4 9 Oeste 27 Sur 0.6 -- -- 97
2020-10-27 18:00:00 9.6 -- -- -- -- 0.4 -- -- 94
2020-10-27 17:00:00 9.5 10 Sudoeste 36 Sur 0.2 -- -- 93
2020-10-27 16:00:00 10 24 Sur 39 Sudoeste 0 -- -- 89
2020-10-27 15:00:00 9.5 14 Sudoeste 37 Sudoeste 0.2 -- -- 91
2020-10-27 14:00:00 9.6 18 Sudoeste 49 Sur 0 -- -- 89
2020-10-27 13:00:00 10 20 Sur 40 Sur 0.2 -- -- 85
2020-10-27 12:00:00 9.3 17 Sudoeste 39 Sur 0 -- -- 85
2020-10-27 11:00:00 9.2 16 Sur 37 Sur 0 -- -- 85
2020-10-27 10:00:00 8 13 Sur 35 Sur 0 -- -- 88
2020-10-27 09:00:00 7.7 14 Sur 39 Sur 0 -- -- 86
2020-10-27 08:00:00 7.5 18 Sur 36 Sur 0 -- -- 85
2020-10-27 07:00:00 7.2 14 Sudoeste 42 Sur 0 -- -- 85
2020-10-27 06:00:00 6.6 19 Sudoeste 35 Sur 0 -- -- 88
2020-10-27 05:00:00 6.5 12 Sur 26 Sudeste 0 -- -- 88
2020-10-27 04:00:00 6.5 9 Oeste 27 Sudoeste 0 -- -- 85
2020-10-27 03:00:00 6.5 9 Sur 24 Sur 0 -- -- 84
2020-10-27 02:00:00 6.3 6 Sur 32 Sur 0 -- -- 88
2020-10-27 01:00:00 6.1 8 Sur 26 Sur 0 -- -- 89
2020-10-27 00:00:00 6 9 Sur 24 Sudoeste 0 -- -- 89